Time;durP1;ratioP1;P1;durP2;ratioP2;P2;SDS_P1;SDS_P2;PMS_P1;PMS_P2;Temp;Humidity;BMP_temperature;BMP_pressure;BME280_temperature;BME280_humidity;BME280_pressure;Samples;Min_cycle;Max_cycle;Signal;HPM_P1;HPM_P2
2023/04/17 00:02:21;;;;;;;0.93;0.93;;;7.20;99.90;;;;;;5036041;28;20045;-86
2023/04/17 00:04:47;;;;;;;;;;;7.20;99.90;;;;;;5036107;28;20534;-87
2023/04/17 00:07:13;;;;;;;0.70;0.70;;;7.20;99.90;;;;;;5035211;28;19921;-83
2023/04/17 00:09:39;;;;;;;;;;;7.10;99.90;;;;;;5036529;28;20061;-87
2023/04/17 00:12:05;;;;;;;0.57;0.57;;;7.20;99.90;;;;;;5035232;28;19928;-87
2023/04/17 00:14:30;;;;;;;1.70;1.60;;;7.10;99.90;;;;;;5018898;28;20490;-87
2023/04/17 00:16:56;;;;;;;0.68;0.68;;;7.20;99.90;;;;;;5044286;28;20029;-83
2023/04/17 00:19:21;;;;;;;4.22;2.97;;;7.10;99.90;;;;;;5037772;28;20101;-85
2023/04/17 00:21:47;;;;;;;1.27;0.95;;;7.10;99.90;;;;;;5037313;28;20033;-88
2023/04/17 00:24:13;;;;;;;1.30;1.30;;;7.10;99.90;;;;;;5035951;28;20132;-83
2023/04/17 00:26:39;;;;;;;0.82;0.82;;;6.90;99.90;;;;;;5035354;28;20503;-85
2023/04/17 00:29:05;;;;;;;4.88;0.80;;;7.10;99.90;;;;;;5034526;28;20060;-87
2023/04/17 00:31:30;;;;;;;0.57;0.57;;;7.10;99.90;;;;;;5035296;28;20103;-87
2023/04/17 00:33:57;;;;;;;0.65;0.65;;;7.10;99.90;;;;;;5035057;28;20107;-86
2023/04/17 00:36:23;;;;;;;1.58;1.52;;;7.10;99.90;;;;;;5034905;28;20057;-86
2023/04/17 00:38:49;;;;;;;;;;;7.10;99.90;;;;;;5036246;28;20124;-86
2023/04/17 00:41:15;;;;;;;0.60;0.60;;;7.20;99.90;;;;;;5035409;28;19987;-83
2023/04/17 00:43:41;;;;;;;0.50;0.50;;;7.10;99.90;;;;;;5035899;28;20100;-86
2023/04/17 00:46:07;;;;;;;0.95;0.95;;;7.10;99.90;;;;;;5035591;28;20114;-87
2023/04/17 00:48:36;;;;;;;0.50;0.50;;;7.10;99.90;;;;;;5035220;28;20438;-85
2023/04/17 00:51:02;;;;;;;1.00;1.00;;;7.10;99.90;;;;;;5034718;28;20045;-86
2023/04/17 00:53:29;;;;;;;;;;;7.10;99.90;;;;;;5035445;28;20053;-86
2023/04/17 00:55:56;;;;;;;0.98;0.98;;;7.10;99.90;;;;;;5035288;28;19921;-87
2023/04/17 00:58:22;;;;;;;1.08;1.08;;;7.10;99.90;;;;;;5055386;28;20099;-86
2023/04/17 01:00:48;;;;;;;0.60;0.60;;;7.10;99.90;;;;;;5042534;28;20041;-87
2023/04/17 01:03:15;;;;;;;0.55;0.55;;;7.10;99.90;;;;;;5041327;28;20481;-87
2023/04/17 01:05:42;;;;;;;0.57;0.57;;;7.10;99.90;;;;;;5041214;28;20061;-85
2023/04/17 01:08:08;;;;;;;0.50;0.50;;;7.10;99.90;;;;;;5041376;28;20085;-85
2023/04/17 01:10:34;;;;;;;0.93;0.93;;;7.10;99.90;;;;;;5041413;28;20089;-84
2023/04/17 01:13:07;;;;;;;2.05;1.95;;;7.10;99.90;;;;;;5042037;28;20064;-85
2023/04/17 01:15:33;;;;;;;0.77;0.77;;;7.10;99.90;;;;;;5041181;28;20041;-83
2023/04/17 01:17:59;;;;;;;0.70;0.70;;;7.10;99.90;;;;;;5042573;28;20049;-87
2023/04/17 01:20:28;;;;;;;0.90;0.85;;;7.10;99.90;;;;;;5041532;28;20476;-86
2023/04/17 01:22:54;;;;;;;1.35;0.98;;;7.10;99.90;;;;;;5041508;28;20049;-85
2023/04/17 01:25:20;;;;;;;1.52;1.42;;;7.10;99.90;;;;;;5041644;28;20057;-82
2023/04/17 01:27:46;;;;;;;0.50;0.50;;;7.10;99.90;;;;;;5041068;28;20057;-84
2023/04/17 01:30:12;;;;;;;0.93;0.93;;;7.10;99.90;;;;;;5041680;28;20113;-87
2023/04/17 01:32:38;;;;;;;1.63;1.52;;;6.90;99.90;;;;;;5059024;28;20056;-85
2023/04/17 01:35:04;;;;;;;0.60;0.60;;;7.00;99.90;;;;;;5058162;28;20052;-86
2023/04/17 01:37:30;;;;;;;;;;;7.00;99.90;;;;;;5058933;28;20433;-87
2023/04/17 01:39:57;;;;;;;0.60;0.60;;;7.00;99.90;;;;;;5057379;28;19921;-86
2023/04/17 01:42:23;;;;;;;0.85;0.85;;;7.00;99.90;;;;;;5041559;28;20110;-83
2023/04/17 01:44:49;;;;;;;0.60;0.60;;;7.00;99.90;;;;;;5041382;28;20465;-84
2023/04/17 01:47:14;;;;;;;0.80;0.80;;;7.00;99.90;;;;;;5041715;28;20076;-85
2023/04/17 01:49:40;;;;;;;0.93;0.93;;;6.90;99.90;;;;;;5041319;28;20115;-86
2023/04/17 01:52:06;;;;;;;2.53;2.35;;;7.00;99.90;;;;;;5025313;28;20156;-86
2023/04/17 01:54:31;;;;;;;0.98;0.98;;;6.90;99.90;;;;;;5024835;28;20046;-82
2023/04/17 01:56:57;;;;;;;0.80;0.80;;;6.90;99.90;;;;;;5058618;28;20045;-87
2023/04/17 01:59:23;;;;;;;1.00;1.00;;;6.90;99.90;;;;;;5041045;28;20140;-83
2023/04/17 02:01:50;;;;;;;4.75;3.22;;;6.90;99.90;;;;;;5040498;28;20115;-86
2023/04/17 02:04:16;;;;;;;0.50;0.50;;;6.90;99.90;;;;;;5043320;28;20057;-85
2023/04/17 02:06:41;;;;;;;1.42;1.33;;;6.90;99.90;;;;;;5042108;28;20472;-86
2023/04/17 02:09:08;;;;;;;1.35;1.20;;;6.90;99.90;;;;;;5022662;28;20049;-87
2023/04/17 02:11:34;;;;;;;0.70;0.63;;;6.90;99.90;;;;;;5037911;28;20521;-86
2023/04/17 02:14:00;;;;;;;0.50;0.50;;;6.90;99.90;;;;;;5037734;28;20053;-84
2023/04/17 02:16:27;;;;;;;1.35;1.23;;;6.90;99.90;;;;;;5037410;28;20037;-83
2023/04/17 02:18:54;;;;;;;0.38;0.38;;;6.90;99.90;;;;;;5055236;28;20049;-87
2023/04/17 02:21:20;;;;;;;2.00;1.90;;;6.90;99.90;;;;;;5039479;28;20535;-86
2023/04/17 02:23:45;;;;;;;;;;;6.90;99.90;;;;;;5022176;28;20045;-84
2023/04/17 02:26:11;;;;;;;0.80;0.68;;;6.90;99.90;;;;;;5040306;28;19921;-87
2023/04/17 02:28:37;;;;;;;0.57;0.57;;;6.90;99.90;;;;;;5038035;28;20041;-86
2023/04/17 02:31:07;;;;;;;1.30;1.30;;;6.80;99.90;;;;;;5038698;28;20053;-86
2023/04/17 02:33:38;;;;;;;0.80;0.80;;;6.80;99.90;;;;;;5037695;28;20049;-86
2023/04/17 02:36:05;;;;;;;0.60;0.60;;;6.80;99.90;;;;;;5038711;28;20049;-85
2023/04/17 02:38:31;;;;;;;0.57;0.57;;;6.80;99.90;;;;;;5037163;28;20061;-84
2023/04/17 02:40:57;;;;;;;1.92;1.65;;;6.80;99.90;;;;;;5036648;28;20053;-82
2023/04/17 02:43:23;;;;;;;0.98;0.98;;;6.80;99.90;;;;;;5054468;28;20060;-84
2023/04/17 02:45:49;;;;;;;0.80;0.80;;;6.80;99.90;;;;;;5054154;28;20418;-85
2023/04/17 02:48:16;;;;;;;0.60;0.60;;;6.80;99.90;;;;;;5052999;28;20037;-85
2023/04/17 02:50:41;;;;;;;0.95;0.95;;;6.80;99.90;;;;;;5053122;28;20053;-84
2023/04/17 02:53:08;;;;;;;1.10;1.00;;;6.70;99.90;;;;;;5037015;28;20041;-84
2023/04/17 02:55:34;;;;;;;0.40;0.40;;;6.70;99.90;;;;;;5037465;28;20072;-85
2023/04/17 02:58:00;;;;;;;;;;;6.70;99.90;;;;;;5037804;28;20053;-85
2023/04/17 03:00:26;;;;;;;0.70;0.70;;;6.70;99.90;;;;;;5021476;28;19978;-85
2023/04/17 03:02:55;;;;;;;3.47;2.67;;;7.10;99.90;;;;;;5037612;28;20041;-86
2023/04/17 03:05:22;;;;;;;0.68;0.68;;;6.70;99.90;;;;;;5037151;28;20048;-85
2023/04/17 03:07:50;;;;;;;2.17;1.48;;;6.70;99.90;;;;;;5036329;28;20109;-85
2023/04/17 03:10:16;;;;;;;1.08;1.08;;;6.70;99.90;;;;;;5053208;28;20439;-86
2023/04/17 03:12:41;;;;;;;1.58;1.55;;;6.80;99.90;;;;;;5035807;28;20072;-85
2023/04/17 03:15:08;;;;;;;0.70;0.70;;;6.70;99.90;;;;;;5036155;28;20053;-86
2023/04/17 03:17:33;;;;;;;;;;;6.70;99.90;;;;;;5036905;28;20054;-86
2023/04/17 03:19:59;;;;;;;0.93;0.93;;;6.80;99.90;;;;;;5037513;28;19921;-87
2023/04/17 03:22:24;;;;;;;1.00;1.00;;;6.70;99.90;;;;;;5035677;28;20080;-85
2023/04/17 03:24:50;;;;;;;1.27;1.25;;;6.70;99.90;;;;;;5037394;28;20037;-86
2023/04/17 03:27:16;;;;;;;1.05;1.00;;;6.70;99.90;;;;;;5019464;28;20036;-85
2023/04/17 03:29:41;;;;;;;1.25;1.25;;;6.70;99.90;;;;;;5036598;28;20132;-86
2023/04/17 03:32:07;;;;;;;0.50;0.50;;;6.70;99.90;;;;;;5037768;28;20463;-82
2023/04/17 03:34:33;;;;;;;0.70;0.70;;;6.60;99.90;;;;;;5036116;28;20071;-86
2023/04/17 03:36:58;;;;;;;0.45;0.45;;;6.60;99.90;;;;;;5037786;28;20095;-85
2023/04/17 03:39:24;;;;;;;0.57;0.57;;;6.60;99.90;;;;;;5038175;28;20063;-85
2023/04/17 03:41:50;;;;;;;2.30;1.98;;;6.60;99.90;;;;;;5053451;28;20050;-85
2023/04/17 03:44:17;;;;;;;1.10;1.10;;;6.60;99.90;;;;;;5036589;28;20570;-84
2023/04/17 03:46:43;;;;;;;0.80;0.80;;;6.60;99.90;;;;;;5036159;28;20054;-84
2023/04/17 03:49:08;;;;;;;0.60;0.60;;;6.60;99.90;;;;;;5052584;28;20051;-83
2023/04/17 03:51:34;;;;;;;1.23;1.13;;;7.40;99.90;;;;;;5036332;28;20052;-85
2023/04/17 03:54:00;;;;;;;0.60;0.60;;;6.60;99.90;;;;;;5035458;28;20639;-82
2023/04/17 03:56:25;;;;;;;0.70;0.70;;;6.60;99.90;;;;;;5035410;28;20045;-85
2023/04/17 03:58:51;;;;;;;0.43;0.43;;;6.60;99.90;;;;;;5036514;28;20057;-85
2023/04/17 04:01:17;;;;;;;0.60;0.60;;;6.60;99.90;;;;;;5038981;28;20046;-85
2023/04/17 04:03:43;;;;;;;0.98;0.98;;;6.60;99.90;;;;;;5038834;28;20053;-85
2023/04/17 04:06:08;;;;;;;0.60;0.60;;;6.60;99.90;;;;;;5023110;28;20129;-86
2023/04/17 04:08:34;;;;;;;0.85;0.85;;;6.60;99.90;;;;;;5037951;28;20061;-82
2023/04/17 04:11:00;;;;;;;0.50;0.50;;;6.60;99.90;;;;;;5036808;28;20553;-86
2023/04/17 04:13:26;;;;;;;1.05;1.05;;;6.70;99.90;;;;;;5036255;28;20503;-86
2023/04/17 04:15:52;;;;;;;0.80;0.80;;;6.70;99.90;;;;;;5035545;28;20049;-85
2023/04/17 04:18:17;;;;;;;0.43;0.43;;;6.70;99.90;;;;;;5035488;28;20125;-86
2023/04/17 04:20:44;;;;;;;0.63;0.63;;;6.70;99.90;;;;;;5036445;28;20130;-84
2023/04/17 04:23:09;;;;;;;;;;;6.70;99.90;;;;;;5036410;28;20060;-85
2023/04/17 04:25:35;;;;;;;0.50;0.50;;;6.80;99.90;;;;;;5036766;28;19925;-82
2023/04/17 04:28:01;;;;;;;0.50;0.50;;;6.80;99.90;;;;;;5019752;28;20522;-86
2023/04/17 04:30:29;;;;;;;0.60;0.60;;;6.80;99.90;;;;;;5036620;28;20050;-86
2023/04/17 04:32:55;;;;;;;0.50;0.50;;;6.80;99.90;;;;;;5036412;28;20045;-85
2023/04/17 04:35:24;;;;;;;0.60;0.60;;;6.80;99.90;;;;;;5037781;28;20460;-84
2023/04/17 04:37:53;;;;;;;0.60;0.60;;;6.80;99.90;;;;;;5037708;28;20049;-83
2023/04/17 04:40:20;;;;;;;1.38;1.38;;;6.80;99.90;;;;;;5037379;28;20057;-86
2023/04/17 04:42:48;;;;;;;0.45;0.45;;;6.80;99.90;;;;;;5036635;28;20053;-86
2023/04/17 04:45:14;;;;;;;1.75;1.60;;;6.80;99.90;;;;;;5021388;28;20132;-85
2023/04/17 04:47:41;;;;;;;0.73;0.73;;;6.80;99.90;;;;;;5036800;28;20099;-85
2023/04/17 04:50:07;;;;;;;;;;;6.80;99.90;;;;;;5044393;28;20103;-84
2023/04/17 04:52:32;;;;;;;0.63;0.63;;;6.80;99.90;;;;;;5050158;28;19921;-85
2023/04/17 04:54:58;;;;;;;2.25;2.15;;;6.80;99.90;;;;;;5049559;28;20046;-83
2023/04/17 04:57:24;;;;;;;0.93;0.93;;;7.30;99.90;;;;;;5032885;28;20049;-83
2023/04/17 04:59:50;;;;;;;0.93;0.93;;;6.80;99.90;;;;;;5048978;28;20041;-82
2023/04/17 05:02:15;;;;;;;0.65;0.60;;;6.80;99.90;;;;;;5050986;28;20502;-82
2023/04/17 05:04:41;;;;;;;0.50;0.50;;;6.80;99.90;;;;;;5037769;28;20073;-84
2023/04/17 05:07:07;;;;;;;0.50;0.50;;;6.90;99.90;;;;;;5034296;28;20058;-84
2023/04/17 05:09:34;;;;;;;1.15;1.15;;;6.90;99.90;;;;;;5034254;28;20063;-85
2023/04/17 05:12:00;;;;;;;0.80;0.80;;;6.80;99.90;;;;;;5035339;28;20383;-85
2023/04/17 05:14:26;;;;;;;0.50;0.50;;;6.90;99.90;;;;;;5034059;28;20053;-84
2023/04/17 05:16:51;;;;;;;0.57;0.57;;;7.10;99.90;;;;;;5033613;28;20071;-85
2023/04/17 05:19:17;;;;;;;1.10;1.10;;;6.90;99.90;;;;;;5033744;28;20049;-84
2023/04/17 05:21:43;;;;;;;1.00;1.00;;;6.90;99.90;;;;;;5034082;28;20049;-84
2023/04/17 05:24:09;;;;;;;0.77;0.77;;;6.90;99.90;;;;;;5034371;28;20492;-81
2023/04/17 05:26:34;;;;;;;0.40;0.40;;;7.00;99.90;;;;;;5033114;28;20128;-84
2023/04/17 05:29:00;;;;;;;0.40;0.40;;;7.00;99.90;;;;;;5034000;28;20059;-85
2023/04/17 05:31:26;;;;;;;0.40;0.40;;;7.10;99.90;;;;;;5017630;28;20042;-85
2023/04/17 05:33:52;;;;;;;1.33;1.23;;;7.00;99.90;;;;;;5034396;28;20071;-84
2023/04/17 05:36:17;;;;;;;0.50;0.50;;;7.10;99.90;;;;;;5034145;28;20102;-84
2023/04/17 05:38:43;;;;;;;0.65;0.65;;;7.20;99.90;;;;;;5034567;28;20136;-83
2023/04/17 05:41:09;;;;;;;0.80;0.80;;;7.20;99.90;;;;;;5016712;28;20046;-84
2023/04/17 05:43:35;;;;;;;0.90;0.90;;;7.20;99.90;;;;;;5033440;28;20053;-84
2023/04/17 05:46:01;;;;;;;0.85;0.80;;;7.30;99.90;;;;;;5036491;28;20124;-83
2023/04/17 05:48:27;;;;;;;0.70;0.70;;;7.30;99.90;;;;;;5037839;28;20041;-84
2023/04/17 05:50:52;;;;;;;0.70;0.70;;;7.30;99.90;;;;;;5038600;28;20123;-82
2023/04/17 05:53:18;;;;;;;5.57;1.00;;;7.40;99.90;;;;;;5005735;28;20092;-85
2023/04/17 05:55:44;;;;;;;;;;;7.40;99.90;;;;;;5021820;28;20089;-82
2023/04/17 05:58:10;;;;;;;0.50;0.50;;;7.50;99.90;;;;;;5038177;28;19921;-84
2023/04/17 06:00:36;;;;;;;2.13;1.98;;;7.50;99.90;;;;;;5022295;28;20130;-86
2023/04/17 06:03:01;;;;;;;0.95;0.93;;;7.50;99.90;;;;;;5021062;28;20049;-85
2023/04/17 06:05:27;;;;;;;0.50;0.50;;;7.60;99.90;;;;;;5037753;28;20045;-86
2023/04/17 06:07:53;;;;;;;0.50;0.50;;;7.60;99.90;;;;;;5037247;28;20057;-85
2023/04/17 06:10:19;;;;;;;0.85;0.85;;;7.70;99.90;;;;;;5037648;28;20060;-85
2023/04/17 06:12:44;;;;;;;0.55;0.55;;;7.70;99.90;;;;;;5036740;28;20064;-83
2023/04/17 06:15:10;;;;;;;0.43;0.43;;;7.80;99.90;;;;;;5037383;28;20041;-86
2023/04/17 06:17:37;;;;;;;0.60;0.60;;;7.80;99.90;;;;;;5054248;28;20056;-86
2023/04/17 06:20:09;;;;;;;1.15;0.70;;;7.90;99.90;;;;;;5039354;28;20076;-86
2023/04/17 06:22:39;;;;;;;0.80;0.65;;;7.90;99.90;;;;;;5062647;28;20065;-87
2023/04/17 06:25:06;;;;;;;0.77;0.57;;;8.00;99.90;;;;;;5036978;28;20068;-86
2023/04/17 06:27:32;;;;;;;0.40;0.40;;;8.00;99.90;;;;;;5024392;28;20094;-85
2023/04/17 06:29:58;;;;;;;4.10;1.35;;;8.10;99.90;;;;;;5038716;28;20490;-87
2023/04/17 06:32:24;;;;;;;0.70;0.70;;;8.20;99.90;;;;;;5055670;28;20053;-84
2023/04/17 06:34:50;;;;;;;0.85;0.85;;;8.20;99.90;;;;;;5022439;28;20132;-85
2023/04/17 06:37:15;;;;;;;0.75;0.70;;;8.30;99.90;;;;;;5039971;28;20081;-85
2023/04/17 06:39:41;;;;;;;0.90;0.90;;;8.40;99.90;;;;;;5038497;28;20054;-86
2023/04/17 06:42:07;;;;;;;0.50;0.50;;;8.40;99.90;;;;;;5039126;28;20045;-86
2023/04/17 06:44:32;;;;;;;1.38;1.25;;;8.50;99.90;;;;;;5039323;28;20132;-86
2023/04/17 06:47:02;;;;;;;2.42;1.00;;;8.60;99.90;;;;;;5038244;28;20046;-86
2023/04/17 06:49:30;;;;;;;1.10;1.10;;;8.70;99.90;;;;;;5039450;28;20046;-86
2023/04/17 06:51:57;;;;;;;1.00;0.95;;;8.80;99.90;;;;;;5041418;28;20049;-85
2023/04/17 06:54:23;;;;;;;0.70;0.70;;;8.90;99.90;;;;;;5047209;28;20050;-85
2023/04/17 06:56:49;;;;;;;;;;;9.00;99.90;;;;;;5038355;28;20056;-81
2023/04/17 06:59:14;;;;;;;1.10;1.00;;;9.10;99.90;;;;;;5039304;28;19921;-85
2023/04/17 07:01:41;;;;;;;1.00;0.75;;;9.20;99.90;;;;;;5039250;28;20384;-84
2023/04/17 07:04:07;;;;;;;;;;;9.20;99.90;;;;;;5038783;28;20049;-84
2023/04/17 07:06:34;;;;;;;0.82;0.82;;;9.40;99.90;;;;;;5038187;28;19961;-85
2023/04/17 07:09:00;;;;;;;;;;;9.50;99.90;;;;;;5037881;28;20096;-84
2023/04/17 07:11:25;;;;;;;1.20;1.15;;;9.50;99.90;;;;;;5022013;28;19909;-84
2023/04/17 07:13:51;;;;;;;2.28;2.15;;;9.60;99.90;;;;;;5038087;28;20118;-85
2023/04/17 07:16:17;;;;;;;0.73;0.73;;;9.70;99.90;;;;;;5038248;28;20045;-84
2023/04/17 07:18:42;;;;;;;1.60;0.82;;;9.80;99.90;;;;;;5036885;28;20049;-87
2023/04/17 07:21:08;;;;;;;0.63;0.63;;;9.90;99.90;;;;;;5038797;28;20073;-84
2023/04/17 07:23:34;;;;;;;1.20;1.13;;;9.90;99.90;;;;;;5037989;28;20049;-85
2023/04/17 07:26:00;;;;;;;1.30;1.27;;;10.00;99.90;;;;;;5037692;28;20463;-84
2023/04/17 07:28:25;;;;;;;0.40;0.40;;;10.10;99.90;;;;;;5038885;28;20091;-85
2023/04/17 07:30:53;;;;;;;1.35;1.30;;;10.20;99.90;;;;;;5021155;28;20091;-83
2023/04/17 07:33:20;;;;;;;0.40;0.40;;;10.20;99.90;;;;;;5021875;28;20133;-86
2023/04/17 07:35:46;;;;;;;1.48;1.40;;;10.30;99.90;;;;;;5037011;28;20112;-85
2023/04/17 07:38:11;;;;;;;2.58;2.33;;;10.30;99.90;;;;;;5038807;28;20105;-86
2023/04/17 07:40:38;;;;;;;1.48;1.38;;;10.40;99.90;;;;;;5038763;28;20183;-86
2023/04/17 07:43:04;;;;;;;0.88;0.88;;;10.50;99.90;;;;;;5040411;28;20128;-84
2023/04/17 07:45:29;;;;;;;0.50;0.50;;;10.70;99.90;;;;;;5040267;28;20081;-86
2023/04/17 07:47:55;;;;;;;1.75;0.98;;;10.90;99.90;;;;;;5039079;28;20099;-85
2023/04/17 07:50:21;;;;;;;2.05;1.25;;;10.90;99.90;;;;;;5039023;28;20041;-84
2023/04/17 07:52:47;;;;;;;0.75;0.75;;;10.90;99.90;;;;;;5038129;28;20046;-86
2023/04/17 07:55:12;;;;;;;1.73;1.63;;;10.90;99.90;;;;;;5005413;28;20120;-85
2023/04/17 07:57:41;;;;;;;1.27;1.15;;;10.90;99.90;;;;;;5037786;28;20053;-87
2023/04/17 08:00:09;;;;;;;1.55;0.95;;;11.00;99.90;;;;;;5038323;28;20042;-85
2023/04/17 08:02:35;;;;;;;1.80;1.67;;;10.90;99.90;;;;;;5039726;28;20109;-82
2023/04/17 08:05:01;;;;;;;1.00;0.65;;;10.90;99.90;;;;;;5054803;28;20033;-84
2023/04/17 08:07:27;;;;;;;1.08;1.00;;;11.00;99.90;;;;;;5071400;28;20037;-84
2023/04/17 08:09:53;;;;;;;2.15;1.95;;;11.10;99.90;;;;;;5037541;28;20053;-83
2023/04/17 08:12:18;;;;;;;2.20;2.05;;;11.20;99.90;;;;;;5041867;28;20060;-86
2023/04/17 08:14:44;;;;;;;1.85;0.60;;;11.30;99.90;;;;;;5046491;28;20124;-85
2023/04/17 08:17:10;;;;;;;1.35;1.25;;;11.40;99.90;;;;;;5043118;28;20083;-86
2023/04/17 08:19:36;;;;;;;2.20;0.95;;;11.50;99.90;;;;;;5037943;28;20056;-85
2023/04/17 08:22:03;;;;;;;1.65;0.75;;;11.60;99.90;;;;;;5036758;28;20553;-85
2023/04/17 08:24:30;;;;;;;0.90;0.90;;;11.60;99.90;;;;;;5019405;28;20507;-83
2023/04/17 08:26:56;;;;;;;0.85;0.85;;;11.70;99.90;;;;;;5053035;28;20053;-84
2023/04/17 08:29:22;;;;;;;;;;;11.70;99.90;;;;;;5037399;28;20045;-85
2023/04/17 08:31:48;;;;;;;2.20;2.08;;;11.70;99.90;;;;;;5053531;28;20474;-84
2023/04/17 08:34:13;;;;;;;0.82;0.82;;;11.60;99.90;;;;;;5036822;28;20468;-84
2023/04/17 08:36:39;;;;;;;1.60;1.50;;;11.50;99.90;;;;;;5037519;28;20049;-85
2023/04/17 08:39:05;;;;;;;0.82;0.82;;;11.50;99.90;;;;;;5037286;28;20041;-85
2023/04/17 08:41:36;;;;;;;;;;;11.50;99.90;;;;;;5037888;28;20073;-85
2023/04/17 08:44:02;;;;;;;1.58;1.23;;;11.50;99.90;;;;;;5037554;28;19928;-84
2023/04/17 08:46:29;;;;;;;;;;;11.50;99.90;;;;;;5037624;28;20085;-86
2023/04/17 08:48:55;;;;;;;0.85;0.85;;;11.60;99.90;;;;;;5036168;28;19976;-85
2023/04/17 08:51:25;;;;;;;0.40;0.40;;;11.70;99.90;;;;;;5035459;28;20049;-84
2023/04/17 08:53:50;;;;;;;1.70;1.60;;;11.70;99.90;;;;;;5036501;28;20046;-84
2023/04/17 08:56:16;;;;;;;2.08;1.10;;;11.70;99.90;;;;;;5019669;28;20113;-84
2023/04/17 08:58:42;;;;;;;1.27;0.85;;;11.70;99.90;;;;;;5020665;28;20547;-84
2023/04/17 09:01:09;;;;;;;1.20;1.10;;;11.70;99.90;;;;;;5036147;28;20049;-86
2023/04/17 09:03:43;;;;;;;0.70;0.70;;;11.70;99.90;;;;;;5038259;28;20077;-84
2023/04/17 09:06:12;;;;;;;0.60;0.60;;;11.80;99.90;;;;;;5037621;28;20146;-84
2023/04/17 09:08:52;;;;;;;2.47;2.28;;;11.70;99.90;;;;;;5036465;28;20065;-84
2023/04/17 09:11:18;;;;;;;17.45;1.15;;;11.70;99.90;;;;;;5052650;28;20061;-84
2023/04/17 09:13:44;;;;;;;0.98;0.98;;;11.70;99.90;;;;;;5019817;28;20033;-84
2023/04/17 09:16:12;;;;;;;0.45;0.45;;;11.80;99.90;;;;;;5035148;28;20069;-84
2023/04/17 09:18:40;;;;;;;0.85;0.85;;;11.80;99.90;;;;;;5036986;28;20052;-84
2023/04/17 09:21:08;;;;;;;2.70;1.13;;;11.80;99.90;;;;;;5040487;28;20081;-85
2023/04/17 09:23:57;;;;;;;1.40;0.60;;;11.90;99.90;;;;;;5023311;28;20045;-85
2023/04/17 09:26:30;;;;;;;1.45;0.77;;;12.10;99.90;;;;;;5057160;28;20049;-84
2023/04/17 09:29:10;;;;;;;0.60;0.60;;;12.30;99.90;;;;;;5039908;28;20041;-84
2023/04/17 09:31:40;;;;;;;2.33;2.03;;;12.40;99.90;;;;;;5040140;28;20053;-84
2023/04/17 09:34:13;;;;;;;0.88;0.88;;;12.40;99.90;;;;;;5023395;28;20100;-85
2023/04/17 09:36:40;;;;;;;1.45;1.35;;;12.30;99.90;;;;;;5039737;28;20083;-85
2023/04/17 09:39:19;;;;;;;0.90;0.90;;;12.30;99.90;;;;;;5056082;28;20060;-84
2023/04/17 09:41:45;;;;;;;1.40;1.33;;;12.40;99.90;;;;;;5040314;28;20049;-85
2023/04/17 09:44:18;;;;;;;;;;;12.50;99.90;;;;;;5039967;28;20053;-85
2023/04/17 09:46:47;;;;;;;0.82;0.55;;;12.50;99.90;;;;;;5039172;28;19921;-86
2023/04/17 09:49:38;;;;;;;0.30;0.30;;;12.60;99.90;;;;;;5056775;28;20064;-84
2023/04/17 09:52:05;;;;;;;0.60;0.60;;;12.60;99.90;;;;;;5039752;28;20045;-84
2023/04/17 09:54:36;;;;;;;1.55;0.93;;;12.50;99.90;;;;;;5056253;28;20045;-85
2023/04/17 09:57:07;;;;;;;0.75;0.75;;;12.40;99.90;;;;;;5039172;28;20052;-83
2023/04/17 09:59:36;;;;;;;0.80;0.80;;;12.40;99.90;;;;;;5040658;28;20045;-86
2023/04/17 10:02:03;;;;;;;1.75;1.65;;;12.50;99.90;;;;;;5040980;28;20045;-84
2023/04/17 10:04:29;;;;;;;2.38;0.70;;;12.70;99.90;;;;;;5040992;28;20088;-86
2023/04/17 10:06:56;;;;;;;1.23;1.15;;;12.80;99.90;;;;;;5040781;28;20050;-85
2023/04/17 10:09:22;;;;;;;0.60;0.60;;;13.00;99.90;;;;;;5039017;28;20120;-83
2023/04/17 10:11:48;;;;;;;1.33;0.93;;;13.20;99.90;;;;;;5039483;28;20100;-84
2023/04/17 10:14:26;;;;;;;3.45;2.53;;;13.20;99.90;;;;;;5023731;28;20119;-87
2023/04/17 10:16:53;;;;;;;1.05;1.05;;;13.20;99.90;;;;;;5039046;28;20041;-86
2023/04/17 10:19:26;;;;;;;3.15;1.60;;;13.40;99.90;;;;;;5039073;28;20102;-86
2023/04/17 10:22:14;;;;;;;2.65;0.98;;;13.60;99.90;;;;;;5039158;28;20072;-85
2023/04/17 10:24:40;;;;;;;0.68;0.68;;;13.80;99.90;;;;;;5022072;28;20046;-86
2023/04/17 10:27:29;;;;;;;1.50;1.40;;;13.90;99.90;;;;;;5055030;28;20132;-84
2023/04/17 10:29:57;;;;;;;1.58;0.80;;;14.00;99.90;;;;;;5037934;28;20045;-85
2023/04/17 10:32:27;;;;;;;0.60;0.60;;;13.90;99.90;;;;;;5038734;28;20099;-87
2023/04/17 10:34:53;;;;;;;1.40;1.25;;;13.90;99.90;;;;;;5054474;28;20091;-85
2023/04/17 10:37:21;;;;;;;0.75;0.75;;;13.90;99.90;;;;;;5037393;28;20115;-84
2023/04/17 10:39:50;;;;;;;3.13;1.55;;;14.00;99.90;;;;;;5037576;28;20044;-86
2023/04/17 10:42:20;;;;;;;1.52;1.42;;;13.90;99.90;;;;;;5037297;28;20104;-84
2023/04/17 10:44:58;;;;;;;5.93;2.22;;;14.00;99.90;;;;;;5039071;28;20051;-85
2023/04/17 10:47:33;;;;;;;0.65;0.50;;;14.00;99.90;;;;;;5053648;28;20052;-85
2023/04/17 10:50:02;;;;;;;1.10;0.50;;;14.00;99.90;;;;;;5054499;28;20144;-85
2023/04/17 10:52:38;;;;;;;1.50;1.40;;;13.90;99.90;;;;;;5037265;28;20117;-87
2023/04/17 10:55:08;;;;;;;0.85;0.82;;;13.90;99.90;;;;;;5038828;28;20060;-87
2023/04/17 10:58:11;;;;;;;0.85;0.85;;;14.00;99.90;;;;;;5020862;28;20038;-86
2023/04/17 11:00:48;;;;;;;0.40;0.40;;;14.20;99.90;;;;;;5038366;28;20053;-87
2023/04/17 11:03:14;;;;;;;;;;;14.30;99.90;;;;;;5037537;28;20052;-86
2023/04/17 11:05:44;;;;;;;1.75;1.65;;;14.40;99.90;;;;;;5037058;28;19968;-86
2023/04/17 11:08:10;;;;;;;0.65;0.65;;;14.40;99.90;;;;;;5053636;28;20057;-84
2023/04/17 11:10:37;;;;;;;1.40;1.30;;;14.80;99.90;;;;;;5037118;28;20056;-85
2023/04/17 11:13:02;;;;;;;2.05;1.17;;;15.00;99.90;;;;;;5037298;28;20403;-87
2023/04/17 11:15:30;;;;;;;0.90;0.88;;;15.10;99.90;;;;;;5037473;28;20124;-86
2023/04/17 11:17:57;;;;;;;2.85;2.13;;;15.30;99.90;;;;;;5038126;28;20060;-84
2023/04/17 11:20:25;;;;;;;1.52;1.25;;;15.10;99.90;;;;;;5038054;28;20057;-85
2023/04/17 11:22:51;;;;;;;1.00;0.95;;;14.80;99.90;;;;;;5036795;28;20056;-85
2023/04/17 11:25:24;;;;;;;3.25;1.95;;;14.80;99.90;;;;;;5020241;28;20489;-84
2023/04/17 11:27:56;;;;;;;;;;;14.70;99.90;;;;;;5053903;28;20511;-85
2023/04/17 11:30:30;;;;;;;0.93;0.93;;;14.80;99.90;;;;;;5038374;28;19921;-87
2023/04/17 11:33:01;;;;;;;1.10;1.00;;;15.10;99.90;;;;;;5037849;28;20053;-86
2023/04/17 11:35:31;;;;;;;1.40;1.30;;;15.20;99.90;;;;;;5036662;28;20049;-87
2023/04/17 11:38:17;;;;;;;1.58;1.40;;;15.10;99.90;;;;;;5053902;28;20151;-87
2023/04/17 11:40:56;;;;;;;6.68;1.42;;;15.10;99.90;;;;;;5037426;28;20053;-86
2023/04/17 11:43:22;;;;;;;1.80;1.70;;;15.20;99.90;;;;;;5037495;28;20080;-86
2023/04/17 11:45:56;;;;;;;2.03;1.23;;;15.40;99.90;;;;;;5039292;28;20057;-87
2023/04/17 11:48:26;;;;;;;3.60;2.60;;;15.30;99.90;;;;;;5036972;28;20405;-85
2023/04/17 11:51:00;;;;;;;0.90;0.88;;;15.10;99.90;;;;;;5053417;28;20093;-84
2023/04/17 11:53:26;;;;;;;1.20;0.95;;;15.10;99.90;;;;;;5053681;28;20079;-85
2023/04/17 11:56:11;;;;;;;;;;;15.10;99.90;;;;;;5053113;28;20049;-85
2023/04/17 11:58:45;;;;;;;1.50;1.40;;;15.10;99.90;;;;;;5038056;28;20287;-85
2023/04/17 12:01:12;;;;;;;0.70;0.70;;;15.20;99.90;;;;;;5053844;28;20037;-86
2023/04/17 12:03:37;;;;;;;1.13;0.90;;;15.10;99.90;;;;;;5053440;28;20082;-86
2023/04/17 12:06:05;;;;;;;0.98;0.93;;;15.00;99.90;;;;;;5035492;28;20053;-86
2023/04/17 12:08:50;;;;;;;1.83;1.73;;;14.80;99.90;;;;;;5051937;28;20053;-86
2023/04/17 12:11:26;;;;;;;0.77;0.77;;;14.80;99.90;;;;;;5036299;28;20140;-84
2023/04/17 12:13:53;;;;;;;1.25;1.15;;;15.00;99.90;;;;;;5036075;28;20042;-87
2023/04/17 12:16:19;;;;;;;1.25;1.10;;;15.10;99.90;;;;;;5019708;28;20052;-83
2023/04/17 12:18:45;;;;;;;1.40;1.02;;;15.40;99.90;;;;;;5036506;28;20064;-86
2023/04/17 12:21:11;;;;;;;0.82;0.65;;;15.50;99.90;;;;;;5037123;28;20049;-86
2023/04/17 12:23:38;;;;;;;2.45;2.22;;;15.50;99.90;;;;;;5035893;28;20056;-87
2023/04/17 12:26:04;;;;;;;1.52;1.42;;;15.40;99.90;;;;;;5036188;28;20080;-86
2023/04/17 12:28:30;;;;;;;;;;;15.50;99.90;;;;;;5004220;28;20076;-84
2023/04/17 12:30:55;;;;;;;1.38;1.27;;;15.50;99.90;;;;;;5036388;28;19988;-85
2023/04/17 12:33:21;;;;;;;;;;;15.30;99.90;;;;;;5038113;28;20049;-83
2023/04/17 12:35:47;;;;;;;1.63;1.52;;;15.30;99.90;;;;;;5020079;28;20035;-83
2023/04/17 12:38:12;;;;;;;;;;;15.20;99.90;;;;;;5036962;28;20049;-82
2023/04/17 12:40:42;;;;;;;1.13;1.02;;;15.10;99.90;;;;;;5034995;28;20423;-84
2023/04/17 12:43:10;;;;;;;1.02;1.00;;;15.10;99.90;;;;;;5052098;28;20425;-83
2023/04/17 12:45:36;;;;;;;2.35;1.08;;;15.00;99.90;;;;;;5036604;28;20122;-85
2023/04/17 12:48:02;;;;;;;1.45;0.95;;;15.00;99.90;;;;;;5052779;28;20097;-86
2023/04/17 12:50:28;;;;;;;1.40;1.30;;;15.10;99.90;;;;;;5020311;28;20095;-85
2023/04/17 12:52:59;;;;;;;2.38;1.83;;;15.40;99.90;;;;;;5045850;28;20071;-82
2023/04/17 12:55:25;;;;;;;0.98;0.85;;;15.60;99.90;;;;;;5037136;28;20054;-84
2023/04/17 12:57:51;;;;;;;;;;;15.70;99.90;;;;;;5037229;28;20046;-83
2023/04/17 13:00:17;;;;;;;1.77;1.67;;;15.80;99.90;;;;;;5036040;28;19925;-85
2023/04/17 13:02:43;;;;;;;1.45;0.80;;;15.90;99.90;;;;;;5035834;28;20081;-84